aviador You're here:

LHBP Decoded Metar

BUDAPEST in HUNGARY
Report Time2018-04-24 14:00:00
UTC Time2018-04-24 14:16:50
Flight Rules vfr VFR
Wind310° at 09 kt
W.Decomp.*RWY 31: 9.0 kt HW 0.6 kt LCW
W.Rank310° ranks 3
Current wind is below 310° avg. (9.5)
Visibility9999 m
Phenomena:N/A
Clouds:N/A
Expected CloudBase > 4,800 ft AGL from Temp-Dew spread
CeilingNone
Temp24°C (ISA +10)
Dew Point12°C (47% RH)
AAT21.4°C
QNH1015 hPa
Density Alt1,913 ft
Elevation607 ft
Report Wrong Elevation
Raw Report
LHBP 241400Z 31009KT 270V340 CAVOK 24/12 Q1015 NOSIG=

Extra information for LHBP:More info

Metar Taf Metar & Taf Last 4 Metars F.Rules Stats Wind Profile Meteogram Temp Stats Airport Information Weather charts Add Link Nearby VenuesMetar ALERT Operation Metar Decoded Social comments